Time;durP1;ratioP1;P1;durP2;ratioP2;P2;SDS_P1;SDS_P2;PMS_P1;PMS_P2;Temp;Humidity;BMP_temperature;BMP_pressure;BME280_temperature;BME280_humidity;BME280_pressure;Samples;Min_cycle;Max_cycle;Signal;HPM_P1;HPM_P2
2022/07/16 00:03:22;;;;;;;2.70;1.42;;;;;;;16.30;57.77;100981.25;5033146;28;20044;-41
2022/07/16 00:05:49;;;;;;;2.35;1.38;;;;;;;16.32;57.47;100973.38;5042232;28;20045;-42
2022/07/16 00:08:17;;;;;;;3.95;2.25;;;;;;;16.29;57.89;100974.28;5036427;28;20044;-42
2022/07/16 00:10:46;;;;;;;3.70;1.52;;;;;;;16.29;57.60;100978.66;5038066;28;20137;-42
2022/07/16 00:13:13;;;;;;;3.65;1.70;;;;;;;16.27;57.83;100980.41;5037359;28;20494;-44
2022/07/16 00:15:40;;;;;;;6.15;1.90;;;;;;;16.26;57.82;100983.91;5026760;28;20128;-43
2022/07/16 00:20:53;;;;;;;5.05;1.75;;;;;;;16.20;57.91;100984.84;5026222;28;20049;-42
2022/07/16 00:23:20;;;;;;;4.32;1.98;;;;;;;16.18;57.81;100987.47;5021110;28;20054;-42
2022/07/16 00:25:47;;;;;;;3.58;1.67;;;;;;;16.16;58.30;100984.00;5039238;28;20050;-42
2022/07/16 00:28:13;;;;;;;3.83;1.55;;;;;;;16.13;57.97;100984.03;5021536;28;20049;-42
2022/07/16 00:30:40;;;;;;;4.22;1.52;;;;;;;16.12;57.82;100981.44;5038580;28;20052;-44
2022/07/16 00:33:07;;;;;;;3.60;1.73;;;;;;;16.11;58.46;100985.78;5030558;28;20053;-42
2022/07/16 00:35:33;;;;;;;4.70;1.92;;;;;;;16.08;57.99;100996.31;5024778;28;20068;-43
2022/07/16 00:38:00;;;;;;;4.80;1.77;;;;;;;16.08;57.89;101005.88;5028694;28;20049;-42
2022/07/16 00:40:27;;;;;;;5.63;1.90;;;;;;;16.04;58.07;101005.03;5033110;28;20057;-42
2022/07/16 00:42:54;;;;;;;3.63;1.75;;;;;;;16.01;58.37;100999.84;5030849;28;20048;-42
2022/07/16 00:45:20;;;;;;;7.15;2.10;;;;;;;15.97;58.65;100998.16;5025963;28;20041;-42
2022/07/16 00:47:47;;;;;;;4.25;1.70;;;;;;;15.92;58.31;100996.44;5029237;28;21702;-42
2022/07/16 00:50:14;;;;;;;3.95;2.17;;;;;;;15.90;58.63;100995.56;5025476;28;20041;-43
2022/07/16 00:52:41;;;;;;;3.65;2.25;;;;;;;15.84;58.64;100998.22;5033428;28;20045;-43
2022/07/16 00:55:08;;;;;;;3.38;1.60;;;;;;;15.80;58.55;101006.97;5037034;28;20052;-43
2022/07/16 00:57:35;;;;;;;4.93;1.90;;;;;;;15.76;59.23;101010.50;5029864;28;20052;-48
2022/07/16 01:00:05;;;;;;;4.30;2.00;;;;;;;15.72;58.97;101014.88;5028442;28;20056;-46
2022/07/16 01:02:33;;;;;;;3.60;2.42;;;;;;;15.68;59.23;101011.41;5032855;28;20045;-42
2022/07/16 01:05:01;;;;;;;6.28;2.40;;;;;;;15.65;59.30;101005.38;5032863;28;20123;-44
2022/07/16 01:07:28;;;;;;;4.80;2.63;;;;;;;15.61;59.64;101006.28;5031037;28;20488;-43
2022/07/16 01:09:57;;;;;;;4.95;2.28;;;;;;;15.58;59.36;101001.94;5030606;28;20103;-44
2022/07/16 01:12:24;;;;;;;7.45;2.75;;;;;;;15.54;59.75;101008.09;5026652;28;20057;-47
2022/07/16 01:14:51;;;;;;;5.68;2.20;;;;;;;15.50;59.87;101003.75;5022684;28;20072;-43
2022/07/16 01:17:18;;;;;;;4.50;2.13;;;;;;;15.46;59.87;101005.50;5030192;28;20103;-44
2022/07/16 01:19:45;;;;;;;5.30;2.10;;;;;;;15.44;59.53;101014.25;5027219;28;20050;-43
2022/07/16 01:22:18;;;;;;;5.80;2.42;;;;;;;15.41;59.88;101015.97;5021102;28;20099;-42
2022/07/16 01:24:44;;;;;;;4.35;2.60;;;;;;;15.40;59.91;101014.25;5023989;28;20049;-44
2022/07/16 01:27:11;;;;;;;5.40;2.70;;;;;;;15.39;59.87;101001.22;5031847;28;20057;-43
2022/07/16 01:29:38;;;;;;;4.95;2.15;;;;;;;15.38;60.16;100996.88;5032246;28;20508;-42
2022/07/16 01:32:05;;;;;;;5.45;2.28;;;;;;;15.35;60.81;100999.50;5040685;28;20061;-44
2022/07/16 01:34:32;;;;;;;5.32;2.83;;;;;;;15.34;60.47;101009.09;5036139;28;20052;-43
2022/07/16 01:37:01;;;;;;;4.20;2.63;;;;;;;15.31;61.13;101001.28;5038080;28;20413;-43
2022/07/16 01:39:30;;;;;;;5.97;2.47;;;;;;;15.28;60.75;101003.91;5031521;28;20042;-42
2022/07/16 01:42:00;;;;;;;9.48;2.92;;;;;;;15.27;61.39;101003.03;5029493;28;20049;-43
2022/07/16 01:44:28;;;;;;;;;;;;;;;15.03;61.23;100993.66;5030699;28;20037;-43
2022/07/16 01:46:57;;;;;;;6.88;2.30;;;;;;;15.18;60.77;100995.28;5042079;28;19925;-42
2022/07/16 01:49:24;;;;;;;6.45;3.00;;;;;;;15.16;61.50;101000.50;5032884;28;20053;-43
2022/07/16 01:51:51;;;;;;;10.20;3.22;;;;;;;15.13;61.37;101000.53;5032675;28;20501;-43
2022/07/16 01:54:18;;;;;;;5.22;2.65;;;;;;;15.10;61.61;101008.38;5030217;28;20045;-43
2022/07/16 01:56:44;;;;;;;4.90;2.20;;;;;;;15.10;61.48;101005.75;5032452;28;20049;-42
2022/07/16 01:59:11;;;;;;;4.35;2.13;;;;;;;15.08;61.35;101019.69;5027107;28;20516;-42
2022/07/16 02:01:37;;;;;;;6.45;2.75;;;;;;;15.09;61.24;101024.03;5031153;28;20052;-45
2022/07/16 02:04:04;;;;;;;7.78;3.08;;;;;;;15.09;61.93;101014.47;5027006;28;20061;-44
2022/07/16 02:06:31;;;;;;;8.02;3.10;;;;;;;15.08;61.95;101009.25;5029730;28;20041;-42
2022/07/16 02:08:57;;;;;;;5.68;3.00;;;;;;;15.07;61.98;101011.03;5035704;28;20044;-42
2022/07/16 02:11:24;;;;;;;6.43;2.72;;;;;;;15.03;62.34;101020.59;5023535;28;20057;-42
2022/07/16 02:13:51;;;;;;;5.93;2.55;;;;;;;15.02;62.15;101021.47;5030200;28;20073;-42
2022/07/16 02:16:18;;;;;;;5.63;3.00;;;;;;;15.01;61.89;101027.56;5033450;28;20053;-44
2022/07/16 02:18:44;;;;;;;8.07;2.50;;;;;;;15.00;61.98;101025.81;5020204;28;20048;-43
2022/07/16 02:21:11;;;;;;;6.25;3.00;;;;;;;15.00;61.33;101023.22;5036472;28;20060;-43
2022/07/16 02:23:38;;;;;;;8.23;3.45;;;;;;;14.99;61.97;101016.25;5027365;28;20056;-44
2022/07/16 02:26:04;;;;;;;7.13;3.38;;;;;;;14.97;62.12;101015.41;5032452;28;20041;-44
2022/07/16 02:28:31;;;;;;;5.28;2.88;;;;;;;14.96;61.77;101018.03;5030612;28;20082;-42
2022/07/16 02:30:58;;;;;;;6.18;3.17;;;;;;;14.92;62.34;101006.72;5031123;28;20056;-43
2022/07/16 02:33:24;;;;;;;6.32;3.08;;;;;;;14.92;61.95;101011.09;5034607;28;20122;-42
2022/07/16 02:35:51;;;;;;;5.78;3.03;;;;;;;14.92;62.05;101016.31;5029531;28;20093;-43
2022/07/16 02:38:18;;;;;;;7.55;3.38;;;;;;;14.89;61.77;101004.13;5032026;28;20099;-44
2022/07/16 02:40:44;;;;;;;10.30;4.03;;;;;;;14.85;62.41;101005.91;5034336;28;20049;-44
2022/07/16 02:43:12;;;;;;;7.95;3.78;;;;;;;14.82;62.03;101005.91;5027582;28;20050;-42
2022/07/16 02:45:40;;;;;;;7.13;3.55;;;;;;;14.78;62.21;101004.19;5031768;28;20096;-43
2022/07/16 02:48:08;;;;;;;6.53;3.28;;;;;;;14.74;62.54;101005.06;5032781;28;20626;-43
2022/07/16 02:50:35;;;;;;;7.75;4.07;;;;;;;14.69;61.88;101009.44;5026941;28;20045;-42
2022/07/16 02:53:02;;;;;;;7.50;3.33;;;;;;;14.67;62.85;101011.16;5031049;28;20065;-42
2022/07/16 02:55:29;;;;;;;6.55;3.65;;;;;;;14.63;62.01;101010.34;5035005;28;21157;-42
2022/07/16 02:57:56;;;;;;;7.07;3.38;;;;;;;14.60;63.15;101012.94;5026845;28;20050;-44
2022/07/16 03:00:23;;;;;;;5.03;3.05;;;;;;;14.57;63.13;101011.22;5022523;28;20064;-42
2022/07/16 03:02:50;;;;;;;7.93;3.97;;;;;;;14.57;63.07;101015.56;5029645;28;20046;-44
2022/07/16 03:05:17;;;;;;;5.88;2.92;;;;;;;14.55;63.18;101006.91;5028245;28;20056;-44
2022/07/16 03:07:44;;;;;;;6.93;3.22;;;;;;;14.52;62.97;101010.34;5026543;28;20053;-42
2022/07/16 03:10:11;;;;;;;10.25;3.42;;;;;;;14.50;63.67;101004.28;5023374;28;20107;-43
2022/07/16 03:12:38;;;;;;;7.45;3.58;;;;;;;14.47;64.05;101010.38;5034113;28;20048;-42
2022/07/16 03:15:06;;;;;;;7.72;3.30;;;;;;;14.46;64.13;101013.00;5025840;28;20091;-43
2022/07/16 03:17:33;;;;;;;6.93;2.92;;;;;;;14.45;64.28;101016.50;5035033;28;20052;-42
2022/07/16 03:20:00;;;;;;;9.52;3.83;;;;;;;14.44;64.10;101014.72;5028102;28;20061;-42
2022/07/16 03:22:26;;;;;;;6.97;2.95;;;;;;;14.43;64.91;101003.47;5038206;28;20068;-44
2022/07/16 03:24:53;;;;;;;6.75;3.88;;;;;;;14.42;64.72;101006.91;5038571;28;20116;-45
2022/07/16 03:27:20;;;;;;;9.82;4.13;;;;;;;14.40;64.71;101001.69;5037424;28;20057;-43
2022/07/16 03:29:46;;;;;;;8.20;3.75;;;;;;;14.38;64.73;100998.25;5030264;28;20045;-42
2022/07/16 03:32:13;;;;;;;8.38;4.15;;;;;;;14.38;64.52;101005.19;5041094;28;20217;-42
2022/07/16 03:34:39;;;;;;;8.93;3.63;;;;;;;14.36;65.25;101007.81;5033258;28;20061;-41
2022/07/16 03:37:06;;;;;;;8.15;3.42;;;;;;;14.37;65.39;101004.34;5030447;28;20057;-42
2022/07/16 03:39:33;;;;;;;9.30;3.67;;;;;;;14.34;65.45;100999.13;5033886;28;20532;-42
2022/07/16 03:41:59;;;;;;;7.55;3.47;;;;;;;14.33;64.75;100994.81;5030046;28;20045;-43
2022/07/16 03:44:26;;;;;;;7.05;3.65;;;;;;;14.32;65.48;100994.81;5034456;28;20103;-42
2022/07/16 03:46:53;;;;;;;7.53;3.65;;;;;;;14.31;65.04;100993.03;5037038;28;20056;-43
2022/07/16 03:49:19;;;;;;;7.55;3.35;;;;;;;14.32;65.42;100995.66;5029303;28;20048;-42
2022/07/16 03:51:46;;;;;;;6.93;3.53;;;;;;;14.32;65.01;100997.41;5025969;28;20631;-42
2022/07/16 03:54:13;;;;;;;6.55;3.35;;;;;;;14.31;65.15;101000.88;5040796;28;20053;-42
2022/07/16 03:56:39;;;;;;;6.53;3.45;;;;;;;14.31;64.31;101001.75;5034547;28;20041;-41
2022/07/16 03:59:06;;;;;;;6.85;3.25;;;;;;;14.32;65.12;101000.88;5024140;28;20053;-42
2022/07/16 04:01:33;;;;;;;6.18;3.38;;;;;;;14.34;64.77;100999.13;5030718;28;20064;-41
2022/07/16 04:03:59;;;;;;;8.98;3.28;;;;;;;14.36;64.38;100999.97;5030612;28;20053;-42
2022/07/16 04:06:26;;;;;;;6.63;3.33;;;;;;;14.36;64.91;101002.59;5024987;28;20041;-42
2022/07/16 04:08:53;;;;;;;6.97;3.40;;;;;;;14.36;64.92;100997.38;5025686;28;20049;-42
2022/07/16 04:11:20;;;;;;;6.85;3.75;;;;;;;14.36;64.95;100994.78;5026447;28;20421;-44
2022/07/16 04:13:47;;;;;;;6.93;3.83;;;;;;;14.35;65.09;100999.97;5027928;28;20056;-43
2022/07/16 04:16:14;;;;;;;5.78;2.95;;;;;;;14.33;64.80;101000.03;5029536;28;20089;-42
2022/07/16 04:18:41;;;;;;;7.53;3.67;;;;;;;14.30;64.74;100997.41;5024274;28;20136;-43
2022/07/16 04:21:08;;;;;;;8.25;4.05;;;;;;;14.28;65.10;100999.16;5033627;28;20053;-42
2022/07/16 04:23:35;;;;;;;8.50;3.50;;;;;;;14.28;65.23;100999.16;5021976;28;20046;-43
2022/07/16 04:26:02;;;;;;;9.65;3.92;;;;;;;14.25;64.58;101000.03;5026160;28;20072;-43
2022/07/16 04:28:28;;;;;;;9.50;4.22;;;;;;;14.25;65.44;100999.16;5030710;28;20053;-42
2022/07/16 04:30:55;;;;;;;8.90;3.92;;;;;;;14.24;65.55;101000.03;5030640;28;20095;-42
2022/07/16 04:33:22;;;;;;;9.65;4.05;;;;;;;14.23;64.60;101003.50;5038344;28;20394;-42
2022/07/16 04:35:50;;;;;;;9.82;3.50;;;;;;;14.23;64.97;101001.78;5028927;28;20136;-42
2022/07/16 04:38:17;;;;;;;6.72;3.72;;;;;;;14.25;64.96;100993.94;5028413;28;20044;-42
2022/07/16 04:40:44;;;;;;;7.93;4.22;;;;;;;14.22;65.20;100989.59;5024407;28;20044;-43
2022/07/16 04:43:11;;;;;;;7.97;4.25;;;;;;;14.22;65.25;100988.75;5032362;28;20107;-46
2022/07/16 04:45:37;;;;;;;7.85;3.90;;;;;;;14.20;65.21;100982.66;5029947;28;20049;-43
2022/07/16 04:48:05;;;;;;;8.90;3.60;;;;;;;14.22;65.17;100991.38;5023485;28;20520;-42
2022/07/16 04:50:32;;;;;;;10.38;4.13;;;;;;;14.24;65.17;100997.41;5028784;28;20049;-42
2022/07/16 04:52:59;;;;;;;8.32;3.40;;;;;;;14.29;64.75;100993.09;5027866;28;20057;-42
2022/07/16 04:55:26;;;;;;;7.28;2.90;;;;;;;14.33;65.49;101002.63;5026778;28;20634;-45
2022/07/16 04:57:52;;;;;;;7.88;3.38;;;;;;;14.36;65.10;100997.38;5025599;28;20068;-42
2022/07/16 05:00:24;;;;;;;11.55;3.67;;;;;;;14.37;65.33;100999.13;5025021;28;20056;-43
2022/07/16 05:02:57;;;;;;;7.28;3.45;;;;;;;14.41;65.13;101002.59;5023183;28;20638;-43
2022/07/16 05:05:31;;;;;;;8.02;4.38;;;;;;;14.45;65.32;101004.31;5029492;28;20049;-43
2022/07/16 05:07:59;;;;;;;8.18;3.78;;;;;;;14.52;65.15;101003.41;5029350;28;20045;-43
2022/07/16 05:10:28;;;;;;;9.20;5.25;;;;;;;14.61;65.32;101002.50;5037044;28;20052;-42
2022/07/16 05:12:55;;;;;;;9.43;4.18;;;;;;;14.71;65.64;100997.25;5028023;28;20111;-42
2022/07/16 05:15:22;;;;;;;9.70;3.90;;;;;;;14.80;64.94;100998.97;5026862;28;20052;-42
2022/07/16 05:17:49;;;;;;;10.75;4.28;;;;;;;14.86;65.19;100999.81;5032027;28;20461;-42
2022/07/16 05:20:16;;;;;;;8.57;4.32;;;;;;;14.96;65.74;100997.16;5023539;28;20504;-44
2022/07/16 05:22:43;;;;;;;9.93;4.03;;;;;;;15.07;65.40;101005.81;5029511;28;20095;-42
2022/07/16 05:25:10;;;;;;;11.75;4.53;;;;;;;15.21;65.44;101007.44;5019214;28;20452;-42
2022/07/16 05:27:37;;;;;;;6.90;3.72;;;;;;;15.34;65.49;101009.09;5024815;28;20045;-41
2022/07/16 05:30:05;;;;;;;6.90;3.72;;;;;;;15.46;64.74;101018.56;5029479;28;20057;-41
2022/07/16 05:32:38;;;;;;;6.53;3.25;;;;;;;15.60;65.14;101023.69;5023679;28;20053;-43
2022/07/16 05:35:06;;;;;;;7.80;3.65;;;;;;;15.74;65.10;101034.00;5021601;28;20071;-42
2022/07/16 05:37:32;;;;;;;5.82;2.70;;;;;;;15.90;64.79;101034.75;5036215;28;20048;-43
2022/07/16 05:39:59;;;;;;;7.22;3.40;;;;;;;16.03;64.66;101029.44;5028234;28;20497;-42
2022/07/16 05:42:26;;;;;;;8.43;3.40;;;;;;;16.15;64.31;101029.31;5031850;28;20048;-42
2022/07/16 05:44:53;;;;;;;11.82;3.28;;;;;;;16.30;64.48;101036.13;5027844;28;20140;-42
2022/07/16 05:47:20;;;;;;;6.25;2.70;;;;;;;16.43;64.00;101034.25;5022469;28;20068;-42
2022/07/16 05:49:46;;;;;;;7.68;4.03;;;;;;;16.57;64.15;101041.06;5026053;28;20042;-45
2022/07/16 05:52:13;;;;;;;9.13;2.85;;;;;;;16.69;64.03;101047.91;5024971;28;20133;-43
2022/07/16 05:54:40;;;;;;;5.97;2.90;;;;;;;16.82;63.56;101052.09;5026164;28;20112;-44
2022/07/16 05:57:06;;;;;;;7.32;3.42;;;;;;;16.93;63.72;101059.78;5029646;28;20119;-43
2022/07/16 05:59:33;;;;;;;8.38;3.58;;;;;;;17.04;63.09;101066.63;5029077;28;20104;-42
2022/07/16 06:02:00;;;;;;;8.00;2.90;;;;;;;17.16;63.17;101058.66;5024550;28;20056;-46
2022/07/16 06:04:26;;;;;;;7.65;3.58;;;;;;;17.29;62.67;101067.19;5025830;28;20041;-42
2022/07/16 06:06:55;;;;;;;6.57;3.13;;;;;;;17.45;62.89;101072.19;5031376;28;20053;-45
2022/07/16 06:09:22;;;;;;;6.00;3.10;;;;;;;17.56;62.01;101074.69;5029835;28;20049;-43
2022/07/16 06:11:48;;;;;;;6.45;3.25;;;;;;;17.64;61.90;101072.81;5030530;28;20111;-42
2022/07/16 06:14:15;;;;;;;6.85;2.83;;;;;;;17.75;61.95;101087.47;5029934;28;20073;-42
2022/07/16 06:16:41;;;;;;;6.40;3.22;;;;;;;17.86;62.35;101088.16;5025267;28;20033;-44
2022/07/16 06:19:08;;;;;;;6.28;2.38;;;;;;;18.03;61.18;101090.50;5034247;28;20055;-43
2022/07/16 06:21:35;;;;;;;5.10;2.00;;;;;;;18.18;60.96;101091.16;5033957;28;20108;-42
2022/07/16 06:24:02;;;;;;;5.93;2.80;;;;;;;18.33;60.76;101090.00;5034484;28;20099;-42
2022/07/16 06:26:29;;;;;;;4.55;2.50;;;;;;;18.49;60.84;101094.09;5032516;28;20485;-44
2022/07/16 06:28:56;;;;;;;3.65;2.13;;;;;;;18.67;60.36;101097.22;5034387;28;20057;-43
2022/07/16 06:31:22;;;;;;;7.07;2.78;;;;;;;18.86;59.95;101086.34;5018410;28;20513;-44
2022/07/16 06:33:49;;;;;;;8.77;2.45;;;;;;;19.05;59.72;101092.06;5024078;28;20052;-43
2022/07/16 06:36:16;;;;;;;5.25;2.83;;;;;;;19.27;59.42;101082.00;5027917;28;20049;-43
2022/07/16 06:38:42;;;;;;;4.25;2.17;;;;;;;19.52;58.62;101089.31;5028986;28;20072;-43
2022/07/16 06:41:09;;;;;;;4.70;2.67;;;;;;;19.76;58.17;101089.59;5034339;28;20096;-43
2022/07/16 06:43:41;;;;;;;4.65;2.75;;;;;;;20.02;57.73;101090.75;5028897;28;20052;-43
2022/07/16 06:46:08;;;;;;;5.57;2.50;;;;;;;20.26;57.42;101083.13;5027017;28;21449;-44
2022/07/16 06:48:35;;;;;;;3.95;2.03;;;;;;;20.49;56.81;101086.91;5031402;28;20058;-44
2022/07/16 06:51:02;;;;;;;4.38;2.38;;;;;;;20.70;56.25;101092.44;5029603;28;20046;-45
2022/07/16 06:53:29;;;;;;;4.22;2.60;;;;;;;20.89;55.55;101086.69;5030561;28;20049;-43
2022/07/16 06:55:55;;;;;;;3.97;2.13;;;;;;;21.13;55.35;101089.47;5018849;28;20045;-44
2022/07/16 06:58:22;;;;;;;4.07;2.05;;;;;;;21.36;54.97;101088.78;5038481;28;20064;-45
2022/07/16 07:00:49;;;;;;;4.75;1.98;;;;;;;21.63;54.62;101093.22;5024534;28;20095;-44
2022/07/16 07:03:15;;;;;;;3.45;1.88;;;;;;;21.97;53.87;101102.69;5026029;28;20053;-45
2022/07/16 07:05:42;;;;;;;3.30;1.88;;;;;;;22.21;53.41;101110.66;5032629;28;20045;-44
2022/07/16 07:08:09;;;;;;;3.92;1.17;;;;;;;22.45;52.42;101113.34;5026538;28;20049;-46
2022/07/16 07:10:36;;;;;;;3.67;1.10;;;;;;;22.70;52.13;101112.50;5037860;28;20090;-44
2022/07/16 07:13:02;;;;;;;2.75;1.20;;;;;;;22.96;50.50;101106.22;5022329;28;20100;-43
2022/07/16 07:15:29;;;;;;;2.15;1.20;;;;;;;23.13;50.76;101114.44;5024417;28;20064;-44
2022/07/16 07:17:56;;;;;;;2.38;1.10;;;;;;;23.34;50.06;101128.59;5030029;28;20123;-44
2022/07/16 07:20:23;;;;;;;2.55;1.23;;;;;;;23.53;49.01;101122.59;5022262;28;20076;-45
2022/07/16 07:22:50;;;;;;;3.83;1.10;;;;;;;23.66;49.20;101122.94;5025334;28;20041;-45
2022/07/16 07:25:17;;;;;;;4.45;1.67;;;;;;;23.78;47.78;101127.75;5020510;28;20072;-45
2022/07/16 07:27:44;;;;;;;1.63;1.05;;;;;;;23.96;47.55;101125.25;5016006;28;20041;-44
2022/07/16 07:30:11;;;;;;;2.17;1.02;;;;;;;24.12;47.83;101125.50;5020478;28;20104;-44
2022/07/16 07:32:38;;;;;;;2.55;0.90;;;;;;;24.33;47.50;101118.41;5025424;28;20104;-44
2022/07/16 07:35:06;;;;;;;2.38;1.10;;;;;;;24.49;47.05;101118.59;5022833;28;20045;-44
2022/07/16 07:37:33;;;;;;;2.58;1.10;;;;;;;24.75;46.34;101118.34;5027414;28;20069;-43
2022/07/16 07:40:02;;;;;;;2.45;1.40;;;;;;;25.02;46.35;101120.66;5021921;28;20053;-44
2022/07/16 07:42:29;;;;;;;2.67;1.42;;;;;;;25.18;45.32;101119.94;5022387;28;20085;-45
2022/07/16 07:44:56;;;;;;;2.75;1.10;;;;;;;25.34;45.30;101126.25;5024104;28;20045;-43
2022/07/16 07:47:22;;;;;;;2.58;1.10;;;;;;;25.56;44.42;101130.50;5019967;28;20099;-45
2022/07/16 07:49:50;;;;;;;3.90;1.13;;;;;;;25.76;44.11;101132.19;5024339;28;20045;-43
2022/07/16 07:52:16;;;;;;;2.03;0.98;;;;;;;25.89;44.32;101136.88;5028117;28;20064;-45
2022/07/16 07:54:43;;;;;;;3.97;1.63;;;;;;;26.02;43.95;101126.50;5029272;28;20053;-43
2022/07/16 07:57:10;;;;;;;1.63;0.98;;;;;;;26.20;43.91;101131.84;5024615;28;20099;-48
2022/07/16 07:59:37;;;;;;;2.55;1.20;;;;;;;26.39;42.72;101140.59;5023644;28;20041;-45
2022/07/16 08:02:03;;;;;;;3.97;1.60;;;;;;;26.44;42.80;101137.66;5024267;28;20054;-44
2022/07/16 08:04:33;;;;;;;3.90;1.20;;;;;;;26.62;42.71;101134.97;5025523;28;20049;-44
2022/07/16 08:07:00;;;;;;;2.47;1.55;;;;;;;26.74;42.51;101133.47;5024298;28;20067;-45
2022/07/16 08:09:27;;;;;;;5.35;1.85;;;;;;;26.91;42.22;101141.38;5026985;28;20508;-44
2022/07/16 08:11:54;;;;;;;2.47;1.35;;;;;;;27.04;42.10;101143.38;5028324;28;20102;-45
2022/07/16 08:14:20;;;;;;;2.97;0.95;;;;;;;27.14;41.03;101147.25;5023726;28;20057;-45
2022/07/16 08:16:54;;;;;;;2.58;1.92;;;;;;;27.26;40.78;101144.84;5023376;28;20041;-47
2022/07/16 08:19:20;;;;;;;2.50;1.30;;;;;;;27.36;40.86;101151.38;5017264;28;20045;-46
2022/07/16 08:21:47;;;;;;;2.80;2.05;;;;;;;27.57;40.55;101148.44;5024018;28;20103;-47
2022/07/16 08:27:02;;;;;;;4.25;1.90;;;;;;;27.96;39.87;101151.53;5017713;28;20107;-46
2022/07/16 08:29:29;;;;;;;3.08;1.42;;;;;;;28.05;38.75;101147.47;5022065;28;20099;-44
2022/07/16 08:31:55;;;;;;;4.25;1.10;;;;;;;28.21;39.83;101153.63;5024149;28;20045;-45
2022/07/16 08:34:23;;;;;;;1.75;0.98;;;;;;;28.48;39.46;101142.25;5022580;28;20099;-45
2022/07/16 08:36:51;;;;;;;3.20;0.93;;;;;;;28.74;38.90;101138.94;5019540;28;20085;-43
2022/07/16 08:39:19;;;;;;;3.13;1.55;;;;;;;28.85;39.36;101140.91;5021201;28;20091;-45
2022/07/16 08:41:46;;;;;;;2.28;1.67;;;;;;;28.99;38.42;101143.59;5021138;28;20115;-44
2022/07/16 08:44:14;;;;;;;2.72;1.25;;;;;;;29.20;38.49;101140.50;5020152;28;20060;-46
2022/07/16 08:46:42;;;;;;;3.20;1.27;;;;;;;29.16;38.42;101144.31;5021799;28;20152;-45
2022/07/16 08:49:09;;;;;;;2.63;1.15;;;;;;;29.28;37.74;101144.47;5014328;28;20045;-48
2022/07/16 08:51:38;;;;;;;2.28;1.50;;;;;;;29.46;38.10;101145.94;5018967;28;20468;-44
2022/07/16 08:54:12;;;;;;;3.38;1.15;;;;;;;29.61;38.13;101157.44;5021654;28;20049;-44
2022/07/16 08:56:43;;;;;;;5.22;1.48;;;;;;;29.54;37.67;101155.28;5020807;28;20061;-45
2022/07/16 08:59:10;;;;;;;2.58;1.35;;;;;;;29.54;38.15;101152.63;5022326;28;20838;-46
2022/07/16 09:01:37;;;;;;;2.78;1.25;;;;;;;29.60;37.46;101153.06;5017756;28;20052;-44
2022/07/16 09:04:04;;;;;;;2.53;1.15;;;;;;;29.66;37.82;101150.94;5025513;28;20452;-43
2022/07/16 09:06:31;;;;;;;2.88;1.25;;;;;;;29.87;36.97;101143.31;5027122;28;20049;-45
2022/07/16 09:08:59;;;;;;;4.22;1.58;;;;;;;30.13;36.68;101146.84;5027324;28;20524;-44
2022/07/16 09:11:30;;;;;;;2.13;1.33;;;;;;;30.36;36.62;101143.59;5024598;28;20405;-44
2022/07/16 09:19:22;;;;;;;3.72;1.48;;;;;;;31.01;35.43;101144.41;5101631;27;20403;-45
2022/07/16 09:24:41;;;;;;;3.67;3.05;;;;;;;31.13;34.57;101137.28;5054192;27;20403;-42
2022/07/16 09:27:12;;;;;;;5.97;2.72;;;;;;;31.11;34.26;101138.38;5023330;28;20058;-46
2022/07/16 09:32:39;;;;;;;3.28;2.05;;;;;;;31.10;34.18;101142.84;5041970;28;20434;-43
2022/07/16 09:35:11;;;;;;;2.67;1.52;;;;;;;31.02;34.51;101146.09;5019149;28;20049;-43
2022/07/16 09:40:46;;;;;;;3.97;1.42;;;;;;;31.29;34.17;101150.41;5020775;27;20409;-43
2022/07/16 09:45:57;;;;;;;2.58;1.50;;;;;;;31.11;34.14;101154.41;5005963;28;20929;-43
2022/07/16 09:48:26;;;;;;;3.88;1.38;;;;;;;31.01;33.58;101151.56;4984699;28;20689;-43
2022/07/16 09:50:55;;;;;;;2.40;1.50;;;;;;;30.99;34.18;101149.00;4998422;28;20050;-43
2022/07/16 09:53:26;;;;;;;2.88;1.50;;;;;;;31.02;34.79;101142.56;4997821;28;20050;-45
2022/07/16 09:55:55;;;;;;;3.72;1.95;;;;;;;31.11;33.31;101154.41;5000387;28;20046;-44
2022/07/16 09:58:21;;;;;;;3.45;1.85;;;;;;;31.10;34.16;101150.03;5001921;28;20061;-43
2022/07/16 10:00:49;;;;;;;4.43;1.67;;;;;;;31.15;33.64;101143.38;4997109;28;20049;-42
2022/07/16 10:03:15;;;;;;;2.47;1.05;;;;;;;31.19;33.88;101152.03;5009089;28;20283;-43
2022/07/16 10:05:42;;;;;;;2.78;1.05;;;;;;;31.33;34.72;101152.88;5001989;28;20160;-44
2022/07/16 10:08:09;;;;;;;3.25;1.83;;;;;;;31.62;34.01;101152.53;5001498;28;20510;-43
2022/07/16 10:10:36;;;;;;;3.83;1.60;;;;;;;31.81;32.64;101152.84;5000015;28;20055;-45
2022/07/16 10:13:03;;;;;;;4.68;1.17;;;;;;;31.83;32.82;101149.16;5000835;28;20104;-46
2022/07/16 10:15:31;;;;;;;2.40;1.45;;;;;;;31.92;32.37;101149.34;5002876;28;20160;-43
2022/07/16 10:17:58;;;;;;;2.88;1.15;;;;;;;31.92;32.59;101143.16;5001299;28;20773;-43
2022/07/16 10:20:24;;;;;;;1.90;1.25;;;;;;;31.99;32.26;101143.53;4992910;28;20970;-42
2022/07/16 10:22:52;;;;;;;3.72;1.13;;;;;;;32.01;31.93;101134.41;4998655;28;20047;-42
2022/07/16 10:25:26;;;;;;;3.25;1.25;;;;;;;32.02;31.95;101144.13;4996279;28;20054;-45
2022/07/16 10:27:54;;;;;;;2.20;1.30;;;;;;;32.02;31.77;101137.94;4992880;28;20056;-43
2022/07/16 10:35:46;;;;;;;2.63;1.13;;;;;;;31.86;31.30;101138.22;5020087;28;20407;-45
2022/07/16 10:41:13;;;;;;;2.63;1.58;;;;;;;31.74;30.10;101132.84;5056206;28;20411;-44
2022/07/16 11:15:06;;;;;;;2.13;1.35;;;;;;;31.53;30.50;101133.50;5047019;28;20401;-41
2022/07/16 11:17:33;;;;;;;2.15;1.13;;;;;;;31.46;30.51;101134.94;5039151;28;20045;-44
2022/07/16 11:20:05;;;;;;;2.67;1.35;;;;;;;31.41;31.15;101142.47;5034177;28;20053;-42
2022/07/16 11:22:31;;;;;;;2.33;1.10;;;;;;;31.40;31.53;101132.69;5055531;28;20059;-44
2022/07/16 11:25:01;;;;;;;1.92;1.20;;;;;;;31.49;32.31;101136.53;5054874;28;20076;-42
2022/07/16 11:27:29;;;;;;;3.47;1.38;;;;;;;31.58;31.40;101137.66;5046068;28;20083;-43
2022/07/16 11:29:58;;;;;;;2.30;1.23;;;;;;;31.45;30.54;101130.56;5055104;28;20131;-44
2022/07/16 11:32:25;;;;;;;4.10;1.52;;;;;;;31.44;30.52;101138.69;5056045;28;20041;-42
2022/07/16 11:34:53;;;;;;;1.60;1.10;;;;;;;31.45;31.26;101133.22;5059912;28;20051;-42
2022/07/16 11:37:20;;;;;;;2.75;1.25;;;;;;;31.51;30.87;101130.06;5055092;28;20060;-42
2022/07/16 11:39:46;;;;;;;2.55;1.20;;;;;;;31.51;31.00;101135.44;5052999;28;20053;-41
2022/07/16 11:42:20;;;;;;;1.63;1.20;;;;;;;31.58;31.54;101129.63;5057408;28;20052;-42
2022/07/16 11:44:47;;;;;;;2.25;1.13;;;;;;;31.68;31.37;101131.47;5056658;28;20045;-42
2022/07/16 11:47:13;;;;;;;3.38;2.42;;;;;;;31.72;31.43;101124.09;5057675;28;20447;-42
2022/07/16 11:49:42;;;;;;;2.42;1.05;;;;;;;31.66;31.62;101132.56;5057704;28;20053;-43
2022/07/16 12:00:03;;;;;;;2.28;0.90;;;;;;;32.11;31.40;101131.03;5061466;27;20413;-41
2022/07/16 12:02:43;;;;;;;2.50;0.80;;;;;;;31.98;30.22;101131.97;5024730;28;20056;-44
2022/07/16 12:05:10;;;;;;;2.00;1.20;;;;;;;31.92;31.04;101132.44;5040119;28;20041;-42
2022/07/16 12:07:37;;;;;;;1.20;0.88;;;;;;;31.78;30.61;101126.28;5036387;28;20045;-42
2022/07/16 12:10:06;;;;;;;1.60;1.10;;;;;;;31.73;31.17;101133.81;5036203;28;20478;-42
2022/07/16 12:12:34;;;;;;;;;;;;;;;31.53;31.94;101138.84;5043791;28;20919;-41
2022/07/16 12:17:48;;;;;;;1.98;0.95;;;;;;;32.09;30.93;101127.59;5026258;28;20412;-43
2022/07/16 12:23:31;;;;;;;5.47;1.13;;;;;;;32.19;30.94;101125.94;5032931;28;20396;-42
2022/07/16 12:26:01;;;;;;;4.18;1.23;;;;;;;32.28;31.20;101122.50;4995950;28;20057;-45
2022/07/16 12:28:29;;;;;;;2.40;1.33;;;;;;;32.38;31.11;101116.44;5009211;28;20470;-41
2022/07/16 12:36:12;;;;;;;2.65;1.17;;;;;;;32.33;29.69;101122.16;5021162;28;20416;-42
2022/07/16 12:43:59;;;;;;;3.75;2.53;;;;;;;31.95;29.15;101121.50;5043083;28;21162;-44
2022/07/16 12:46:29;;;;;;;2.97;2.30;;;;;;;31.74;29.16;101124.81;5012563;28;20108;-41
2022/07/16 12:49:00;;;;;;;2.22;1.80;;;;;;;31.63;29.32;101119.41;5014321;28;20054;-46
2022/07/16 12:51:30;;;;;;;3.08;1.75;;;;;;;31.54;30.15;101123.66;5030268;28;20050;-42
2022/07/16 12:53:58;;;;;;;3.47;2.05;;;;;;;31.55;30.48;101115.50;5011386;28;20046;-43